Time;durP1;ratioP1;P1;durP2;ratioP2;P2;SDS_P1;SDS_P2;PMS_P1;PMS_P2;Temp;Humidity;BMP_temperature;BMP_pressure;BME280_temperature;BME280_humidity;BME280_pressure;Samples;Min_cycle;Max_cycle;Signal;HPM_P1;HPM_P2
2023/08/16 00:00:55;;;;;;;5.65;3.47;;;;;;;12.32;100.00;102094.28;5074193;28;20024;-79
2023/08/16 00:03:21;;;;;;;4.15;2.97;;;;;;;12.26;100.00;102095.59;5092414;28;20081;-79
2023/08/16 00:05:46;;;;;;;6.20;3.20;;;;;;;12.20;100.00;102093.41;5092504;28;20032;-80
2023/08/16 00:08:11;;;;;;;10.18;5.40;;;;;;;12.21;100.00;102095.13;5092317;28;20032;-80
2023/08/16 00:10:37;;;;;;;9.73;5.80;;;;;;;12.25;100.00;102085.88;5092222;28;20040;-79
2023/08/16 00:13:03;;;;;;;7.88;4.45;;;;;;;12.25;100.00;102088.53;5092318;28;20366;-79
2023/08/16 00:15:28;;;;;;;4.57;3.70;;;;;;;12.22;100.00;102091.44;5092129;28;20043;-79
2023/08/16 00:17:54;;;;;;;7.85;4.20;;;;;;;12.19;100.00;102097.03;5092116;28;20525;-79
2023/08/16 00:20:20;;;;;;;7.20;4.40;;;;;;;12.16;100.00;102097.28;5091751;28;20055;-79
2023/08/16 00:22:46;;;;;;;7.15;3.55;;;;;;;12.15;100.00;102087.56;5091962;28;20032;-79
2023/08/16 00:25:11;;;;;;;8.02;4.47;;;;;;;12.12;100.00;102087.78;5091738;28;20118;-79
2023/08/16 00:27:36;;;;;;;8.77;4.63;;;;;;;12.13;100.00;102089.50;5091665;28;20028;-78
2023/08/16 00:30:03;;;;;;;7.25;3.75;;;;;;;12.07;100.00;102082.81;5092236;28;20031;-79
2023/08/16 00:32:28;;;;;;;4.53;3.28;;;;;;;12.00;100.00;102084.25;5091701;28;20038;-78
2023/08/16 00:34:54;;;;;;;9.02;5.05;;;;;;;11.97;100.00;102089.81;5091887;28;20024;-78
2023/08/16 00:37:19;;;;;;;7.28;4.13;;;;;;;11.95;100.00;102100.63;5091884;28;20075;-79
2023/08/16 00:39:44;;;;;;;7.57;4.82;;;;;;;11.93;100.00;102094.56;5092363;28;20028;-79
2023/08/16 00:42:10;;;;;;;6.88;5.15;;;;;;;11.92;100.00;102098.16;5091060;28;20035;-79
2023/08/16 00:44:36;;;;;;;9.60;5.40;;;;;;;11.93;100.00;102099.91;5092218;28;20437;-79
2023/08/16 00:47:02;;;;;;;6.20;4.63;;;;;;;11.90;100.00;102108.09;5073929;28;20032;-80
2023/08/16 00:49:28;;;;;;;8.07;4.40;;;;;;;11.85;100.00;102114.75;5092524;28;20364;-80
2023/08/16 00:51:53;;;;;;;6.05;4.30;;;;;;;11.77;100.00;102118.00;5091934;28;20044;-79
2023/08/16 00:54:19;;;;;;;5.18;3.85;;;;;;;11.69;100.00;102120.38;5092204;28;20062;-80
2023/08/16 00:56:44;;;;;;;5.78;3.40;;;;;;;11.63;100.00;102121.69;5091897;28;20040;-78
2023/08/16 00:59:11;;;;;;;3.88;3.13;;;;;;;11.57;100.00;102117.69;5092238;28;20177;-78
2023/08/16 01:01:36;;;;;;;5.38;3.13;;;;;;;11.55;100.00;102121.41;5092452;28;20036;-79
2023/08/16 01:04:02;;;;;;;7.05;4.03;;;;;;;11.53;100.00;102112.69;5092285;28;20036;-78
2023/08/16 01:06:27;;;;;;;7.40;3.80;;;;;;;11.54;100.00;102117.03;5091707;28;20101;-78
2023/08/16 01:08:53;;;;;;;4.95;3.95;;;;;;;11.55;100.00;102124.91;5074040;28;20460;-77
2023/08/16 01:11:33;;;;;;;4.45;2.80;;;;;;;11.54;100.00;102125.91;5073316;28;20410;-79
2023/08/16 01:14:23;;;;;;;6.57;4.55;;;;;;;11.58;100.00;102131.84;5091984;28;20111;-79
2023/08/16 01:16:51;;;;;;;6.35;4.45;;;;;;;11.58;100.00;102130.00;5072900;28;20036;-78
2023/08/16 01:19:27;;;;;;;5.22;3.55;;;;;;;11.54;100.00;102128.56;5091141;28;20383;-78
2023/08/16 01:22:16;;;;;;;4.57;3.88;;;;;;;11.48;100.00;102126.34;5091693;28;20362;-79
2023/08/16 01:25:07;;;;;;;3.65;2.67;;;;;;;11.42;100.00;102126.78;5073671;28;20024;-79
2023/08/16 01:27:32;;;;;;;6.78;3.95;;;;;;;11.42;100.00;102132.13;5073253;28;20059;-80
2023/08/16 01:29:59;;;;;;;6.32;4.28;;;;;;;11.42;100.00;102132.13;5091113;28;20048;-78
2023/08/16 01:32:27;;;;;;;7.85;4.65;;;;;;;11.41;100.00;102130.44;5092484;28;20318;-77
2023/08/16 01:34:52;;;;;;;8.82;4.28;;;;;;;11.42;100.00;102134.78;5075341;28;20066;-77
2023/08/16 01:37:17;;;;;;;8.02;4.60;;;;;;;11.43;100.00;102136.50;5074847;28;20032;-77
2023/08/16 01:39:43;;;;;;;7.05;4.35;;;;;;;11.43;100.00;102156.00;5092973;28;20085;-77
2023/08/16 01:42:13;;;;;;;8.18;4.50;;;;;;;11.38;100.00;102144.00;5093281;28;20035;-77
2023/08/16 01:44:39;;;;;;;7.55;4.13;;;;;;;11.36;100.00;102145.91;5093210;28;20119;-77
2023/08/16 01:47:06;;;;;;;7.10;4.90;;;;;;;11.34;100.00;102142.50;5092949;28;20021;-77
2023/08/16 01:49:32;;;;;;;9.80;5.38;;;;;;;11.34;100.00;102155.81;5092754;28;20478;-77
2023/08/16 01:51:58;;;;;;;8.27;4.38;;;;;;;11.31;100.00;102150.72;5092875;28;20032;-77
2023/08/16 01:54:23;;;;;;;5.95;4.30;;;;;;;11.25;100.00;102144.84;5095731;28;20038;-77
2023/08/16 01:56:49;;;;;;;4.75;3.30;;;;;;;11.24;100.00;102151.16;5096803;28;20453;-77
2023/08/16 01:59:14;;;;;;;4.97;2.95;;;;;;;11.20;100.00;102154.19;5096599;28;20024;-77
2023/08/16 02:01:39;;;;;;;3.78;3.25;;;;;;;11.17;100.00;102157.91;5078406;28;20044;-77
2023/08/16 02:04:05;;;;;;;4.30;3.05;;;;;;;11.13;100.00;102159.06;5078345;28;20028;-77
2023/08/16 02:06:30;;;;;;;5.28;3.60;;;;;;;11.13;100.00;102153.75;5096582;28;20036;-77
2023/08/16 02:08:55;;;;;;;6.43;3.67;;;;;;;11.14;100.00;102151.94;5061454;28;20552;-76
2023/08/16 02:11:21;;;;;;;4.53;3.33;;;;;;;11.13;100.00;102156.41;5096107;28;20115;-76
2023/08/16 02:13:46;;;;;;;7.63;3.80;;;;;;;11.13;100.00;102161.75;5077814;28;20072;-77
2023/08/16 02:16:12;;;;;;;7.70;5.30;;;;;;;11.12;100.00;102157.38;5096716;28;20380;-77
2023/08/16 02:18:38;;;;;;;7.75;4.63;;;;;;;11.13;100.00;102155.56;5095965;28;20119;-77
2023/08/16 02:21:03;;;;;;;6.63;4.97;;;;;;;11.14;100.00;102159.91;5094672;28;20133;-76
2023/08/16 02:23:29;;;;;;;8.43;5.60;;;;;;;11.13;100.00;102151.09;5096312;28;20040;-79
2023/08/16 02:25:55;;;;;;;7.75;5.57;;;;;;;11.15;100.00;102154.50;5096067;28;20371;-77
2023/08/16 02:28:20;;;;;;;7.70;5.32;;;;;;;11.14;100.00;102159.91;5078109;28;20464;-77
2023/08/16 02:30:46;;;;;;;5.20;3.80;;;;;;;11.11;100.00;102159.19;5095937;28;20063;-76
2023/08/16 02:33:11;;;;;;;7.22;5.20;;;;;;;11.10;100.00;102162.81;5095469;28;20048;-76
2023/08/16 02:35:36;;;;;;;6.60;4.10;;;;;;;11.09;100.00;102160.25;5096023;28;20040;-76
2023/08/16 02:38:02;;;;;;;6.10;4.35;;;;;;;11.08;100.00;102161.22;5095504;28;20035;-76
2023/08/16 02:40:27;;;;;;;7.88;5.18;;;;;;;11.07;100.00;102155.03;5078320;28;20044;-76
2023/08/16 02:42:52;;;;;;;6.00;4.60;;;;;;;11.08;100.00;102154.09;5095701;28;20392;-76
2023/08/16 02:45:18;;;;;;;6.10;4.07;;;;;;;11.07;100.00;102157.69;5095908;28;20111;-77
2023/08/16 02:47:44;;;;;;;6.88;4.20;;;;;;;11.05;100.00;102153.47;5095616;28;20032;-76
2023/08/16 02:50:09;;;;;;;6.65;4.00;;;;;;;11.07;100.00;102155.03;5095616;28;20035;-76
2023/08/16 02:52:35;;;;;;;5.85;4.55;;;;;;;11.07;100.00;102157.69;5095359;28;20036;-76
2023/08/16 02:55:00;;;;;;;7.25;4.70;;;;;;;11.06;100.00;102150.69;5095862;28;20032;-76
2023/08/16 02:57:26;;;;;;;8.80;4.80;;;;;;;11.06;100.00;102147.16;5095531;28;20392;-76
2023/08/16 02:59:51;;;;;;;4.68;3.20;;;;;;;11.05;100.00;102153.47;5095833;28;20480;-76
2023/08/16 03:02:17;;;;;;;6.82;4.05;;;;;;;11.01;100.00;102160.81;5078167;28;20033;-76
2023/08/16 03:04:43;;;;;;;5.13;3.22;;;;;;;10.96;100.00;102151.44;5094612;28;20044;-77
2023/08/16 03:07:10;;;;;;;4.85;2.90;;;;;;;10.90;100.00;102155.41;5095535;28;20102;-77
2023/08/16 03:09:36;;;;;;;4.70;3.60;;;;;;;10.87;100.00;102159.13;5095899;28;20090;-78
2023/08/16 03:12:02;;;;;;;5.63;4.88;;;;;;;10.89;100.00;102154.53;5095052;28;20035;-77
2023/08/16 03:14:28;;;;;;;4.85;3.47;;;;;;;10.88;100.00;102152.00;5095272;28;20025;-77
2023/08/16 03:16:54;;;;;;;4.07;3.50;;;;;;;10.85;100.00;102154.88;5095169;28;20024;-77
2023/08/16 03:19:20;;;;;;;3.60;3.30;;;;;;;10.86;100.00;102161.91;5095427;28;20032;-76
2023/08/16 03:21:45;;;;;;;4.13;3.63;;;;;;;10.82;100.00;102161.25;5095491;28;20032;-77
2023/08/16 03:24:10;;;;;;;3.83;3.30;;;;;;;10.80;100.00;102163.19;5077616;28;20482;-77
2023/08/16 03:26:36;;;;;;;3.83;3.10;;;;;;;10.79;100.00;102161.47;5095505;28;20036;-77
2023/08/16 03:29:03;;;;;;;4.93;3.20;;;;;;;10.76;100.00;102162.56;5094958;28;20032;-77
2023/08/16 03:31:28;;;;;;;4.75;3.78;;;;;;;10.74;100.00;102168.94;5076196;28;20032;-77
2023/08/16 03:33:54;;;;;;;5.00;3.80;;;;;;;10.72;100.00;102168.22;5094786;28;20069;-77
2023/08/16 03:36:19;;;;;;;6.40;4.25;;;;;;;10.72;100.00;102171.72;5094781;28;20195;-77
2023/08/16 03:38:44;;;;;;;8.68;5.93;;;;;;;10.74;100.00;102175.13;5076604;28;20089;-77
2023/08/16 03:41:10;;;;;;;7.82;5.63;;;;;;;10.75;100.00;102173.31;5094616;28;20079;-76
2023/08/16 03:43:38;;;;;;;9.45;6.50;;;;;;;10.77;100.00;102179.38;5059841;28;20456;-77
2023/08/16 03:46:04;;;;;;;9.02;6.00;;;;;;;10.77;100.00;102174.06;5094587;28;20040;-77
2023/08/16 03:48:30;;;;;;;9.02;5.22;;;;;;;10.76;100.00;102175.00;5094665;28;20496;-77
2023/08/16 03:50:56;;;;;;;7.00;3.97;;;;;;;10.71;100.00;102171.81;5094795;28;20036;-76
2023/08/16 03:53:21;;;;;;;6.05;5.05;;;;;;;10.68;100.00;102182.69;5076666;28;20035;-76
2023/08/16 03:55:47;;;;;;;8.85;5.03;;;;;;;10.64;100.00;102179.38;5076380;28;20028;-76
2023/08/16 03:58:13;;;;;;;6.40;4.68;;;;;;;10.61;100.00;102184.91;5094892;28;20032;-77
2023/08/16 04:00:40;;;;;;;4.45;3.60;;;;;;;10.59;100.00;102184.19;5094231;28;20032;-76
2023/08/16 04:03:06;;;;;;;4.82;3.97;;;;;;;10.57;100.00;102183.44;5094552;28;20047;-76
2023/08/16 04:05:32;;;;;;;5.68;4.50;;;;;;;10.56;100.00;102174.59;5076125;28;20031;-77
2023/08/16 04:07:57;;;;;;;7.40;4.55;;;;;;;10.56;100.00;102173.75;5075987;28;20085;-77
2023/08/16 04:10:23;;;;;;;12.75;5.82;;;;;;;10.58;100.00;102170.03;5094682;28;20107;-77
2023/08/16 04:12:48;;;;;;;7.68;5.53;;;;;;;10.65;100.00;102172.25;5093988;28;20467;-77
2023/08/16 04:15:13;;;;;;;8.65;6.55;;;;;;;10.66;100.00;102180.13;5093682;28;20075;-77
2023/08/16 04:17:39;;;;;;;8.57;5.57;;;;;;;10.69;100.00;102184.38;5094454;28;20189;-77
2023/08/16 04:20:08;;;;;;;8.95;5.10;;;;;;;10.68;100.00;102183.53;5093616;28;20105;-77
2023/08/16 04:22:34;;;;;;;9.82;5.22;;;;;;;10.65;100.00;102185.56;5093825;28;20024;-77
2023/08/16 04:25:00;;;;;;;4.78;4.28;;;;;;;10.60;100.00;102185.91;5094207;28;20028;-77
2023/08/16 04:27:25;;;;;;;6.30;4.97;;;;;;;10.57;100.00;102186.94;5093801;28;20533;-76
2023/08/16 04:29:50;;;;;;;6.53;4.10;;;;;;;10.56;100.00;102187.06;5093521;28;20024;-79
2023/08/16 04:32:16;;;;;;;7.28;4.47;;;;;;;10.56;100.00;102179.06;5093400;28;20032;-77
2023/08/16 04:34:41;;;;;;;6.60;4.50;;;;;;;10.59;100.00;102181.53;5094000;28;20064;-77
2023/08/16 04:37:07;;;;;;;11.73;7.30;;;;;;;10.64;100.00;102183.84;5093600;28;20028;-77
2023/08/16 04:39:32;;;;;;;7.78;5.75;;;;;;;10.64;100.00;102183.84;5093363;28;20028;-76
2023/08/16 04:41:57;;;;;;;9.20;5.88;;;;;;;10.61;100.00;102173.41;5093532;28;20118;-77
2023/08/16 04:44:23;;;;;;;7.20;4.50;;;;;;;10.58;100.00;102186.00;5093649;28;20038;-77
2023/08/16 04:46:49;;;;;;;8.75;6.53;;;;;;;10.58;100.00;102183.34;5094016;28;20115;-78
2023/08/16 04:49:15;;;;;;;8.63;4.90;;;;;;;10.60;100.00;102172.59;5093468;28;20063;-77
2023/08/16 04:51:40;;;;;;;6.30;4.88;;;;;;;10.63;100.00;102182.16;5093478;28;20416;-77
2023/08/16 04:54:07;;;;;;;9.88;6.63;;;;;;;10.71;100.00;102185.13;5093416;28;20077;-77
2023/08/16 04:56:33;;;;;;;10.57;7.57;;;;;;;10.78;100.00;102189.09;5075903;28;20043;-77
2023/08/16 04:58:58;;;;;;;9.07;6.13;;;;;;;10.81;100.00;102188.88;5093029;28;20032;-77
2023/08/16 05:01:23;;;;;;;13.20;7.88;;;;;;;10.82;100.00;102187.03;5093108;28;20043;-77
2023/08/16 05:03:52;;;;;;;7.68;5.25;;;;;;;10.81;100.00;102183.53;5093355;28;20529;-77
2023/08/16 05:06:17;;;;;;;6.38;5.05;;;;;;;10.81;100.00;102188.88;5093811;28;20115;-77
2023/08/16 05:08:43;;;;;;;9.27;6.20;;;;;;;10.80;100.00;102187.16;5093232;28;20185;-77
2023/08/16 05:11:09;;;;;;;7.68;6.50;;;;;;;10.79;100.00;102190.75;5093927;28;20028;-78
2023/08/16 05:13:34;;;;;;;9.88;7.60;;;;;;;10.82;100.00;102192.38;5093399;28;20396;-77
2023/08/16 05:15:59;;;;;;;8.05;6.43;;;;;;;10.83;100.00;102188.75;5093172;28;20059;-77
2023/08/16 05:18:25;;;;;;;8.55;6.53;;;;;;;10.81;100.00;102191.53;5075612;28;20060;-78
2023/08/16 05:20:50;;;;;;;10.88;7.13;;;;;;;10.86;100.00;102199.19;5093196;28;20063;-79
2023/08/16 05:23:15;;;;;;;10.20;6.22;;;;;;;10.92;100.00;102194.25;5075240;28;20060;-77
2023/08/16 05:25:41;;;;;;;14.82;8.70;;;;;;;10.99;100.00;102199.16;5093226;28;20025;-78
2023/08/16 05:28:07;;;;;;;11.35;7.22;;;;;;;11.05;100.00;102202.25;5094270;28;20032;-78
2023/08/16 05:30:33;;;;;;;14.13;7.78;;;;;;;11.10;100.00;102201.91;5097172;28;20036;-78
2023/08/16 05:32:58;;;;;;;9.90;7.00;;;;;;;11.12;100.00;102200.00;5096969;28;20036;-78
2023/08/16 05:35:24;;;;;;;13.82;9.05;;;;;;;11.22;100.00;102202.84;5097046;28;20034;-78
2023/08/16 05:37:54;;;;;;;23.98;13.70;;;;;;;11.29;100.00;102198.78;5097814;28;20403;-78
2023/08/16 05:40:19;;;;;;;16.25;9.88;;;;;;;11.41;100.00;102210.38;5098075;28;20032;-78
2023/08/16 05:42:45;;;;;;;27.00;15.65;;;;;;;11.55;100.00;102204.88;5097404;28;20043;-78
2023/08/16 05:45:10;;;;;;;18.75;12.35;;;;;;;11.67;100.00;102204.97;5097031;28;20035;-77
2023/08/16 05:47:36;;;;;;;20.38;13.13;;;;;;;11.78;100.00;102207.69;5079238;28;20093;-78
2023/08/16 05:50:02;;;;;;;22.30;14.18;;;;;;;11.91;100.00;102207.63;5096732;28;20028;-78
2023/08/16 05:52:28;;;;;;;23.30;13.15;;;;;;;12.06;100.00;102206.53;5078537;28;20144;-78
2023/08/16 05:54:53;;;;;;;29.15;16.88;;;;;;;12.22;100.00;102211.53;5097080;28;20457;-78
2023/08/16 05:57:19;;;;;;;28.20;17.23;;;;;;;12.34;100.00;102215.91;5096839;28;20032;-78
2023/08/16 05:59:44;;;;;;;30.80;17.45;;;;;;;12.47;100.00;102221.19;5096285;28;20040;-78
2023/08/16 06:02:10;;;;;;;32.63;19.25;;;;;;;12.62;100.00;102223.66;5097160;28;20039;-80
2023/08/16 06:04:36;;;;;;;30.92;17.67;;;;;;;12.74;100.00;102221.84;5078532;28;20035;-78
2023/08/16 06:07:02;;;;;;;33.20;19.45;;;;;;;12.87;100.00;102225.25;5096419;28;20039;-76
2023/08/16 06:09:28;;;;;;;38.60;18.40;;;;;;;12.97;100.00;102226.25;5096186;28;20040;-79
2023/08/16 06:11:53;;;;;;;28.67;17.75;;;;;;;13.05;100.00;102226.47;5095733;28;20024;-79
2023/08/16 06:14:19;;;;;;;31.38;17.27;;;;;;;13.11;100.00;102227.81;5096709;28;20113;-80
2023/08/16 06:16:45;;;;;;;29.55;18.20;;;;;;;13.19;100.00;102232.53;5096254;28;20032;-80
2023/08/16 06:19:13;;;;;;;29.42;16.75;;;;;;;13.27;100.00;102239.94;5095636;28;20031;-78
2023/08/16 06:21:38;;;;;;;30.58;17.20;;;;;;;13.33;100.00;102229.63;5096895;28;20190;-79
2023/08/16 06:24:05;;;;;;;28.50;16.55;;;;;;;13.39;100.00;102229.16;5078140;28;20060;-82
2023/08/16 06:26:30;;;;;;;23.27;15.20;;;;;;;13.45;100.00;102227.81;5096078;28;20063;-79
2023/08/16 06:28:55;;;;;;;25.58;15.65;;;;;;;13.48;100.00;102224.91;5077534;28;20555;-79
2023/08/16 06:31:21;;;;;;;26.13;15.63;;;;;;;13.54;100.00;102235.09;5095311;28;20476;-79
2023/08/16 06:33:46;;;;;;;31.40;15.05;;;;;;;13.63;100.00;102235.31;5095834;28;20028;-80
2023/08/16 06:36:12;;;;;;;23.52;14.40;;;;;;;13.70;100.00;102226.69;5095481;28;20027;-79
2023/08/16 06:38:38;;;;;;;23.50;14.32;;;;;;;13.81;100.00;102231.13;5095186;28;20039;-79
2023/08/16 06:41:03;;;;;;;22.92;13.75;;;;;;;13.92;100.00;102232.91;5095539;28;20448;-79
2023/08/16 06:43:29;;;;;;;22.65;13.30;;;;;;;14.01;100.00;102234.81;5095791;28;20428;-79
2023/08/16 06:45:56;;;;;;;20.77;12.43;;;;;;;14.13;100.00;102234.78;5095202;28;20077;-77
2023/08/16 06:48:22;;;;;;;21.30;12.48;;;;;;;14.25;100.00;102233.75;5095544;28;20028;-77
2023/08/16 06:50:47;;;;;;;22.35;13.30;;;;;;;14.38;100.00;102238.94;5095371;28;20031;-77
2023/08/16 06:53:13;;;;;;;19.15;11.85;;;;;;;14.50;100.00;102231.69;5094881;28;20024;-77
2023/08/16 06:55:38;;;;;;;16.80;11.23;;;;;;;14.59;100.00;102245.13;5077067;28;20039;-78
2023/08/16 06:58:07;;;;;;;21.50;10.95;;;;;;;14.69;100.00;102247.91;5095278;28;20066;-78
2023/08/16 07:00:32;;;;;;;17.15;11.02;;;;;;;14.83;100.00;102235.16;5095198;28;20448;-77
2023/08/16 07:02:58;;;;;;;18.95;11.00;;;;;;;14.99;100.00;102246.22;5061118;28;20071;-77
2023/08/16 07:05:26;;;;;;;16.30;9.90;;;;;;;15.13;100.00;102253.06;5095368;28;20130;-78
2023/08/16 07:07:52;;;;;;;15.40;9.45;;;;;;;15.19;100.00;102257.03;5095260;28;20028;-77
2023/08/16 07:10:17;;;;;;;15.15;8.93;;;;;;;15.21;100.00;102249.69;5094837;28;20043;-78
2023/08/16 07:12:44;;;;;;;14.25;9.23;;;;;;;15.31;100.00;102247.91;5095143;28;20028;-78
2023/08/16 07:15:11;;;;;;;15.82;9.38;;;;;;;15.45;100.00;102252.03;5095350;28;20050;-78
2023/08/16 07:17:37;;;;;;;16.88;9.35;;;;;;;15.61;100.00;102255.03;5095053;28;20056;-78
2023/08/16 07:20:07;;;;;;;17.30;8.93;;;;;;;15.79;100.00;102254.41;5094541;28;20068;-77
2023/08/16 07:22:32;;;;;;;17.10;8.70;;;;;;;15.96;100.00;102255.53;5094717;28;20027;-79
2023/08/16 07:24:58;;;;;;;14.82;8.77;;;;;;;16.08;100.00;102254.44;5094851;28;20445;-78
2023/08/16 07:27:24;;;;;;;18.95;8.77;;;;;;;16.16;100.00;102254.56;5095291;28;20028;-78
2023/08/16 07:29:49;;;;;;;14.32;7.45;;;;;;;16.24;100.00;102258.38;5076031;28;20023;-78
2023/08/16 07:32:15;;;;;;;12.57;7.40;;;;;;;16.31;100.00;102257.66;5094367;28;20033;-76
2023/08/16 07:34:40;;;;;;;10.43;6.95;;;;;;;16.37;100.00;102256.25;5076078;28;20119;-77
2023/08/16 07:37:05;;;;;;;10.55;7.43;;;;;;;16.42;100.00;102250.44;5094452;28;20113;-77
2023/08/16 07:39:32;;;;;;;11.05;6.93;;;;;;;16.56;100.00;102260.75;5059125;28;20030;-77
2023/08/16 07:41:57;;;;;;;9.55;6.28;;;;;;;16.69;100.00;102264.00;5076288;28;20368;-78
2023/08/16 07:44:22;;;;;;;11.23;6.60;;;;;;;16.78;100.00;102267.66;5094259;28;20024;-78
2023/08/16 07:46:48;;;;;;;15.15;7.07;;;;;;;16.92;100.00;102261.81;5094223;28;20031;-78
2023/08/16 07:49:13;;;;;;;9.23;6.90;;;;;;;17.08;100.00;102260.38;5094907;28;20090;-79
2023/08/16 07:51:38;;;;;;;11.85;6.38;;;;;;;17.17;100.00;102264.03;5093965;28;20472;-78
2023/08/16 07:54:04;;;;;;;11.25;6.18;;;;;;;17.33;100.00;102264.25;5093827;28;20034;-78
2023/08/16 07:56:29;;;;;;;10.13;5.60;;;;;;;17.53;100.00;102264.97;5094068;28;20024;-79
2023/08/16 07:58:55;;;;;;;9.05;5.50;;;;;;;17.71;100.00;102266.84;5094100;28;20017;-78
2023/08/16 08:01:20;;;;;;;9.98;5.68;;;;;;;17.87;100.00;102269.72;5094037;28;20036;-78
2023/08/16 08:03:46;;;;;;;8.30;4.82;;;;;;;18.02;100.00;102266.50;5094933;28;20031;-78
2023/08/16 08:06:12;;;;;;;9.68;4.72;;;;;;;18.25;100.00;102278.50;5094407;28;20020;-78
2023/08/16 08:08:37;;;;;;;7.78;4.80;;;;;;;18.48;100.00;102267.25;5094844;28;20063;-80
2023/08/16 08:11:06;;;;;;;6.80;4.00;;;;;;;18.75;100.00;102273.50;5075804;28;20123;-80
2023/08/16 08:13:31;;;;;;;7.70;3.42;;;;;;;18.90;100.00;102274.66;5094017;28;20039;-81
2023/08/16 08:15:57;;;;;;;6.22;3.63;;;;;;;19.11;100.00;102273.41;5094190;28;20024;-80
2023/08/16 08:18:22;;;;;;;5.55;2.75;;;;;;;19.39;100.00;102268.63;5093729;28;20032;-82
2023/08/16 08:20:48;;;;;;;5.45;3.58;;;;;;;19.64;100.00;102269.56;5094413;28;20048;-79
2023/08/16 08:23:13;;;;;;;9.75;3.42;;;;;;;19.94;100.00;102270.00;5094053;28;20032;-81
2023/08/16 08:25:42;;;;;;;6.90;3.67;;;;;;;20.25;100.00;102274.75;5076035;28;20032;-83
2023/08/16 08:28:08;;;;;;;7.88;3.65;;;;;;;20.73;100.00;102272.22;5093861;28;20035;-80
2023/08/16 08:30:33;;;;;;;5.22;3.30;;;;;;;21.12;100.00;102275.00;5075631;28;20028;-78
2023/08/16 08:33:00;;;;;;;6.18;3.38;;;;;;;21.49;100.00;102276.19;5094036;28;20077;-79
2023/08/16 08:35:25;;;;;;;5.18;3.50;;;;;;;21.75;100.00;102274.22;5094441;28;20131;-80
2023/08/16 08:37:51;;;;;;;4.75;3.17;;;;;;;22.00;100.00;102274.91;5093547;28;20430;-77
2023/08/16 08:40:18;;;;;;;5.15;2.80;;;;;;;22.15;100.00;102278.53;5075540;28;20341;-82
2023/08/16 08:42:49;;;;;;;5.78;3.53;;;;;;;22.22;100.00;102275.94;5093591;28;20035;-77
2023/08/16 08:45:15;;;;;;;4.35;3.35;;;;;;;22.23;100.00;102287.59;5094509;28;20118;-79
2023/08/16 08:47:43;;;;;;;5.80;2.70;;;;;;;22.29;100.00;102282.31;5093603;28;20028;-77
2023/08/16 08:50:09;;;;;;;7.65;2.83;;;;;;;22.24;100.00;102282.00;5093974;28;20506;-77
2023/08/16 08:52:34;;;;;;;3.45;2.42;;;;;;;22.06;100.00;102287.72;5093840;28;20028;-76
2023/08/16 08:55:01;;;;;;;4.03;2.30;;;;;;;22.26;100.00;102293.53;5075514;28;20028;-79
2023/08/16 08:57:29;;;;;;;4.03;2.20;;;;;;;22.08;100.00;102295.69;5094233;28;20031;-78
2023/08/16 08:59:57;;;;;;;3.25;1.95;;;;;;;22.19;100.00;102290.69;5075490;28;20024;-77
2023/08/16 09:02:24;;;;;;;7.10;2.40;;;;;;;22.21;100.00;102292.38;5093396;28;20067;-80
2023/08/16 09:04:51;;;;;;;5.10;2.13;;;;;;;22.31;100.00;102284.84;5098380;28;20024;-77
2023/08/16 09:07:17;;;;;;;4.97;2.10;;;;;;;22.80;100.00;102295.28;5097718;28;20052;-78
2023/08/16 09:09:48;;;;;;;5.05;1.98;;;;;;;23.49;100.00;102298.75;5097751;28;20043;-81
2023/08/16 09:12:14;;;;;;;6.70;2.00;;;;;;;24.11;100.00;102297.41;5079476;28;20065;-79
2023/08/16 09:14:39;;;;;;;5.90;2.30;;;;;;;24.84;100.00;102293.59;5097190;28;20080;-79
2023/08/16 09:17:05;;;;;;;5.40;2.50;;;;;;;25.22;94.14;102295.94;5097460;28;20102;-79
2023/08/16 09:19:30;;;;;;;2.83;2.15;;;;;;;25.56;87.77;102292.34;5078878;28;20105;-79
2023/08/16 09:21:56;;;;;;;3.60;1.85;;;;;;;26.25;90.96;102286.84;5097716;28;20039;-79
2023/08/16 09:24:25;;;;;;;4.55;1.58;;;;;;;27.06;89.21;102289.28;5097654;28;20122;-79
2023/08/16 09:26:52;;;;;;;4.68;1.92;;;;;;;27.46;73.43;102284.78;5098094;28;20336;-79
2023/08/16 09:29:17;;;;;;;5.97;2.00;;;;;;;27.76;79.04;102282.28;5079107;28;20085;-79
2023/08/16 09:31:45;;;;;;;4.63;2.00;;;;;;;27.85;69.21;102278.22;5097242;28;20055;-79
2023/08/16 09:34:12;;;;;;;4.72;1.75;;;;;;;28.18;62.63;102282.66;5096836;28;20028;-79
2023/08/16 09:36:41;;;;;;;5.07;2.28;;;;;;;28.32;64.63;102280.66;5097635;28;20020;-78
2023/08/16 09:39:10;;;;;;;4.32;2.00;;;;;;;28.28;67.29;102285.72;5096760;28;20369;-79
2023/08/16 09:41:38;;;;;;;2.78;1.63;;;;;;;27.80;60.41;102278.06;5097274;28;20059;-79
2023/08/16 09:44:04;;;;;;;4.40;1.77;;;;;;;27.46;61.27;102276.59;5097316;28;20024;-79
2023/08/16 09:46:30;;;;;;;2.55;1.27;;;;;;;27.65;62.98;102275.63;5078618;28;20024;-79
2023/08/16 09:49:06;;;;;;;1.90;1.30;;;;;;;27.89;64.44;102275.91;5097174;28;20082;-79
2023/08/16 09:51:33;;;;;;;3.47;1.75;;;;;;;27.67;56.46;102265.31;5097016;28;20115;-78
2023/08/16 09:54:01;;;;;;;5.22;2.10;;;;;;;27.76;60.46;102272.19;5096796;28;20035;-78
2023/08/16 09:56:30;;;;;;;4.97;1.70;;;;;;;27.84;60.79;102271.06;5097487;28;20016;-79
2023/08/16 09:58:57;;;;;;;4.97;2.03;;;;;;;28.12;63.33;102276.16;5096677;28;20521;-78
2023/08/16 10:01:22;;;;;;;4.70;1.67;;;;;;;28.24;60.30;102270.00;5096816;28;20031;-79
2023/08/16 10:03:53;;;;;;;4.13;1.67;;;;;;;28.49;55.87;102269.97;5097031;28;20363;-79
2023/08/16 10:06:23;;;;;;;2.85;1.63;;;;;;;28.45;58.87;102274.22;5096467;28;20448;-78
2023/08/16 10:08:49;;;;;;;3.10;1.60;;;;;;;28.03;57.54;102273.94;5097072;28;20024;-78
2023/08/16 10:11:15;;;;;;;8.15;1.55;;;;;;;27.16;58.63;102263.44;5096416;28;20032;-79
2023/08/16 10:13:42;;;;;;;3.65;2.13;;;;;;;27.40;58.72;102267.34;5096212;28;20039;-79
2023/08/16 10:16:11;;;;;;;9.57;2.22;;;;;;;27.43;66.30;102269.66;5096345;28;20035;-79
2023/08/16 10:18:39;;;;;;;6.50;2.13;;;;;;;27.27;64.74;102262.75;5096177;28;20024;-78
2023/08/16 10:21:08;;;;;;;6.53;1.73;;;;;;;27.28;60.57;102272.63;5096817;28;20043;-78
2023/08/16 10:23:37;;;;;;;4.85;1.50;;;;;;;27.56;62.96;102264.13;5096652;28;20101;-81
2023/08/16 10:26:04;;;;;;;3.08;1.60;;;;;;;27.59;60.07;102274.59;5096117;28;20059;-78
2023/08/16 10:28:31;;;;;;;4.20;1.55;;;;;;;27.85;60.72;102270.03;5096881;28;20032;-79
2023/08/16 10:30:59;;;;;;;3.38;1.45;;;;;;;27.99;62.12;102264.50;5096043;28;20016;-79
2023/08/16 10:33:33;;;;;;;2.40;1.30;;;;;;;28.45;59.75;102268.75;5095877;28;20406;-79
2023/08/16 10:36:00;;;;;;;3.83;1.60;;;;;;;28.59;57.15;102263.97;5078280;28;20020;-79
2023/08/16 10:38:41;;;;;;;4.72;1.73;;;;;;;28.68;53.84;102265.41;5095887;28;20110;-79
2023/08/16 10:41:10;;;;;;;;;;;;;;;28.62;56.89;102260.84;5078547;28;20028;-79
2023/08/16 10:43:36;;;;;;;3.80;1.50;;;;;;;28.77;57.71;102266.78;5077433;28;19927;-80
2023/08/16 10:46:01;;;;;;;2.97;1.50;;;;;;;29.06;56.46;102269.81;5096006;28;20024;-79
2023/08/16 10:48:34;;;;;;;4.70;1.38;;;;;;;29.22;56.71;102264.84;5095653;28;20123;-78
2023/08/16 10:51:02;;;;;;;4.00;1.70;;;;;;;28.90;54.65;102270.44;5096481;28;20367;-79
2023/08/16 10:53:28;;;;;;;4.82;1.45;;;;;;;28.78;50.58;102259.41;5095519;28;20027;-79
2023/08/16 10:55:55;;;;;;;2.97;1.40;;;;;;;28.60;55.19;102268.44;5095877;28;20036;-78
2023/08/16 10:58:25;;;;;;;3.40;1.42;;;;;;;28.66;52.09;102265.66;5095416;28;20028;-79
2023/08/16 11:00:56;;;;;;;2.75;1.25;;;;;;;28.82;58.52;102264.19;5095403;28;20020;-78
2023/08/16 11:03:24;;;;;;;2.28;1.00;;;;;;;28.96;57.24;102270.38;5095295;28;20032;-78
2023/08/16 11:05:52;;;;;;;3.13;1.33;;;;;;;28.98;56.31;102264.66;5095257;28;20032;-79
2023/08/16 11:08:17;;;;;;;4.68;1.30;;;;;;;29.32;51.22;102260.47;5095585;28;20032;-79
2023/08/16 11:10:43;;;;;;;2.17;1.45;;;;;;;29.20;50.54;102271.34;5094936;28;20396;-80
2023/08/16 11:13:10;;;;;;;2.75;1.33;;;;;;;29.25;50.72;102270.69;5077161;28;20028;-80